sensor_id;sensor_type;location;lat;lon;timestamp;P1;durP1;ratioP1;P2;durP2;ratioP2
75885;SDS011;64561;44.018;10.144;2023-05-07T09:29:59;2.88;;;2.20;;
75885;SDS011;64561;44.018;10.144;2023-05-07T09:32:30;3.67;;;2.53;;
75885;SDS011;64561;44.018;10.144;2023-05-07T09:35:01;3.40;;;2.40;;
75885;SDS011;64561;44.018;10.144;2023-05-07T09:37:30;4.00;;;2.80;;
75885;SDS011;64561;44.018;10.144;2023-05-07T09:39:58;3.55;;;2.75;;
75885;SDS011;64561;44.018;10.144;2023-05-07T09:42:26;3.95;;;2.78;;
75885;SDS011;64561;44.018;10.144;2023-05-07T09:44:58;4.20;;;2.20;;
75885;SDS011;64561;44.018;10.144;2023-05-07T09:47:31;5.22;;;2.88;;
75885;SDS011;64561;44.018;10.144;2023-05-07T09:50:03;5.55;;;2.97;;
75885;SDS011;64561;44.018;10.144;2023-05-07T09:52:35;6.47;;;3.60;;
75885;SDS011;64561;44.018;10.144;2023-05-07T09:55:04;4.30;;;2.50;;
75885;SDS011;64561;44.018;10.144;2023-05-07T09:57:33;6.72;;;4.63;;
75885;SDS011;64561;44.018;10.144;2023-05-07T10:00:04;5.13;;;2.63;;
75885;SDS011;64561;44.018;10.144;2023-05-07T10:02:46;3.67;;;2.70;;
75885;SDS011;64561;44.018;10.144;2023-05-07T10:05:19;4.70;;;2.60;;
75885;SDS011;64561;44.018;10.144;2023-05-07T10:07:50;4.18;;;2.83;;
75885;SDS011;64561;44.018;10.144;2023-05-07T10:10:22;3.92;;;2.53;;
75885;SDS011;64561;44.018;10.144;2023-05-07T10:12:50;3.88;;;2.83;;
75885;SDS011;64561;44.018;10.144;2023-05-07T10:15:29;3.17;;;2.38;;
75885;SDS011;64561;44.018;10.144;2023-05-07T10:17:58;3.58;;;2.50;;
75885;SDS011;64561;44.018;10.144;2023-05-07T10:20:27;3.08;;;2.30;;
75885;SDS011;64561;44.018;10.144;2023-05-07T10:22:57;5.78;;;2.55;;
75885;SDS011;64561;44.018;10.144;2023-05-07T10:25:35;4.18;;;2.97;;
75885;SDS011;64561;44.018;10.144;2023-05-07T10:28:08;3.38;;;2.35;;
75885;SDS011;64561;44.018;10.144;2023-05-07T10:33:11;5.10;;;2.47;;
75885;SDS011;64561;44.018;10.144;2023-05-07T10:35:43;3.92;;;2.88;;
75885;SDS011;64561;44.018;10.144;2023-05-07T10:38:14;4.03;;;2.55;;
75885;SDS011;64561;44.018;10.144;2023-05-07T10:40:43;4.82;;;2.80;;
75885;SDS011;64561;44.018;10.144;2023-05-07T10:43:14;8.90;;;4.22;;
75885;SDS011;64561;44.018;10.144;2023-05-07T11:08:00;3.53;;;2.53;;
75885;SDS011;64561;44.018;10.144;2023-05-07T11:10:52;3.22;;;2.25;;
75885;SDS011;64561;44.018;10.144;2023-05-07T11:13:41;3.35;;;2.50;;
75885;SDS011;64561;44.018;10.144;2023-05-07T11:16:22;4.88;;;2.90;;
75885;SDS011;64561;44.018;10.144;2023-05-07T11:19:00;3.67;;;2.60;;
75885;SDS011;64561;44.018;10.144;2023-05-07T11:24:38;4.10;;;3.20;;
75885;SDS011;64561;44.018;10.144;2023-05-07T11:27:07;3.75;;;2.63;;
75885;SDS011;64561;44.018;10.144;2023-05-07T11:29:35;3.85;;;2.47;;
75885;SDS011;64561;44.018;10.144;2023-05-07T11:32:06;2.97;;;2.10;;
75885;SDS011;64561;44.018;10.144;2023-05-07T11:34:40;3.85;;;2.58;;
75885;SDS011;64561;44.018;10.144;2023-05-07T11:37:07;3.33;;;2.70;;
75885;SDS011;64561;44.018;10.144;2023-05-07T11:39:48;3.47;;;2.80;;
75885;SDS011;64561;44.018;10.144;2023-05-07T11:42:25;4.18;;;2.55;;
75885;SDS011;64561;44.018;10.144;2023-05-07T11:44:52;3.67;;;2.70;;
75885;SDS011;64561;44.018;10.144;2023-05-07T11:47:19;3.83;;;2.50;;
75885;SDS011;64561;44.018;10.144;2023-05-07T11:49:50;3.80;;;2.50;;
75885;SDS011;64561;44.018;10.144;2023-05-07T11:52:19;3.35;;;2.65;;
75885;SDS011;64561;44.018;10.144;2023-05-07T11:57:17;4.43;;;2.97;;
75885;SDS011;64561;44.018;10.144;2023-05-07T11:59:44;4.78;;;2.45;;
75885;SDS011;64561;44.018;10.144;2023-05-07T12:02:10;3.35;;;2.20;;
75885;SDS011;64561;44.018;10.144;2023-05-07T12:04:44;3.55;;;2.15;;
75885;SDS011;64561;44.018;10.144;2023-05-07T12:07:11;4.78;;;2.60;;
75885;SDS011;64561;44.018;10.144;2023-05-07T12:09:40;3.17;;;2.40;;
75885;SDS011;64561;44.018;10.144;2023-05-07T12:12:08;3.70;;;1.80;;
75885;SDS011;64561;44.018;10.144;2023-05-07T12:14:41;3.47;;;2.15;;
75885;SDS011;64561;44.018;10.144;2023-05-07T12:17:09;3.00;;;2.20;;
75885;SDS011;64561;44.018;10.144;2023-05-07T12:19:38;3.30;;;2.28;;
75885;SDS011;64561;44.018;10.144;2023-05-07T12:22:09;3.17;;;2.20;;
75885;SDS011;64561;44.018;10.144;2023-05-07T12:27:14;3.03;;;2.10;;
75885;SDS011;64561;44.018;10.144;2023-05-07T12:29:46;2.67;;;2.17;;
75885;SDS011;64561;44.018;10.144;2023-05-07T12:32:13;2.78;;;1.80;;
75885;SDS011;64561;44.018;10.144;2023-05-07T12:34:43;3.17;;;1.80;;
75885;SDS011;64561;44.018;10.144;2023-05-07T12:37:11;3.22;;;1.55;;
75885;SDS011;64561;44.018;10.144;2023-05-07T12:39:48;2.50;;;1.60;;
75885;SDS011;64561;44.018;10.144;2023-05-07T12:42:15;3.17;;;1.63;;
75885;SDS011;64561;44.018;10.144;2023-05-07T12:44:45;2.65;;;1.70;;
75885;SDS011;64561;44.018;10.144;2023-05-07T12:47:13;4.35;;;2.33;;
75885;SDS011;64561;44.018;10.144;2023-05-07T12:49:41;2.28;;;1.67;;
75885;SDS011;64561;44.018;10.144;2023-05-07T12:52:08;2.42;;;1.73;;
75885;SDS011;64561;44.018;10.144;2023-05-07T12:54:37;3.65;;;1.60;;
75885;SDS011;64561;44.018;10.144;2023-05-07T12:57:06;2.10;;;1.70;;
75885;SDS011;64561;44.018;10.144;2023-05-07T12:59:37;3.55;;;2.08;;
75885;SDS011;64561;44.018;10.144;2023-05-07T13:02:06;2.92;;;1.70;;
75885;SDS011;64561;44.018;10.144;2023-05-07T13:04:35;3.13;;;2.20;;
75885;SDS011;64561;44.018;10.144;2023-05-07T13:07:02;2.83;;;2.10;;
75885;SDS011;64561;44.018;10.144;2023-05-07T13:09:30;3.10;;;1.60;;
75885;SDS011;64561;44.018;10.144;2023-05-07T13:11:58;3.28;;;1.95;;
75885;SDS011;64561;44.018;10.144;2023-05-07T13:14:28;2.65;;;2.13;;
75885;SDS011;64561;44.018;10.144;2023-05-07T13:16:54;3.10;;;2.10;;
75885;SDS011;64561;44.018;10.144;2023-05-07T13:19:21;2.70;;;1.65;;
75885;SDS011;64561;44.018;10.144;2023-05-07T13:21:48;2.95;;;2.00;;
75885;SDS011;64561;44.018;10.144;2023-05-07T13:24:16;4.00;;;2.20;;
75885;SDS011;64561;44.018;10.144;2023-05-07T13:26:43;4.32;;;2.28;;
75885;SDS011;64561;44.018;10.144;2023-05-07T13:29:11;2.50;;;2.00;;
75885;SDS011;64561;44.018;10.144;2023-05-07T13:31:38;2.85;;;2.30;;
75885;SDS011;64561;44.018;10.144;2023-05-07T13:34:09;3.00;;;2.00;;
75885;SDS011;64561;44.018;10.144;2023-05-07T13:36:36;2.95;;;1.77;;
75885;SDS011;64561;44.018;10.144;2023-05-07T13:39:06;2.67;;;2.00;;
75885;SDS011;64561;44.018;10.144;2023-05-07T13:41:33;2.40;;;1.90;;
75885;SDS011;64561;44.018;10.144;2023-05-07T13:43:59;12.23;;;2.45;;
75885;SDS011;64561;44.018;10.144;2023-05-07T13:46:26;6.82;;;1.90;;
75885;SDS011;64561;44.018;10.144;2023-05-07T13:48:53;2.35;;;1.88;;
75885;SDS011;64561;44.018;10.144;2023-05-07T13:51:21;5.20;;;2.30;;
75885;SDS011;64561;44.018;10.144;2023-05-07T13:53:48;3.10;;;1.90;;
75885;SDS011;64561;44.018;10.144;2023-05-07T13:56:15;3.78;;;1.80;;
75885;SDS011;64561;44.018;10.144;2023-05-07T13:58:41;5.28;;;1.90;;
75885;SDS011;64561;44.018;10.144;2023-05-07T14:01:24;2.40;;;1.90;;
75885;SDS011;64561;44.018;10.144;2023-05-07T14:03:51;3.17;;;2.20;;
75885;SDS011;64561;44.018;10.144;2023-05-07T14:06:18;2.88;;;2.03;;
75885;SDS011;64561;44.018;10.144;2023-05-07T14:08:46;3.33;;;2.00;;
75885;SDS011;64561;44.018;10.144;2023-05-07T14:11:12;2.83;;;2.05;;
75885;SDS011;64561;44.018;10.144;2023-05-07T14:13:39;4.18;;;2.17;;
75885;SDS011;64561;44.018;10.144;2023-05-07T14:16:06;3.00;;;2.03;;
75885;SDS011;64561;44.018;10.144;2023-05-07T14:18:33;2.47;;;1.77;;
75885;SDS011;64561;44.018;10.144;2023-05-07T14:21:01;3.70;;;1.80;;
75885;SDS011;64561;44.018;10.144;2023-05-07T14:23:28;2.65;;;1.80;;
75885;SDS011;64561;44.018;10.144;2023-05-07T14:25:55;2.50;;;1.70;;
75885;SDS011;64561;44.018;10.144;2023-05-07T14:28:23;1.98;;;1.63;;
75885;SDS011;64561;44.018;10.144;2023-05-07T14:30:50;2.15;;;1.55;;
75885;SDS011;64561;44.018;10.144;2023-05-07T14:33:17;3.67;;;1.80;;
75885;SDS011;64561;44.018;10.144;2023-05-07T14:35:44;3.28;;;1.85;;
75885;SDS011;64561;44.018;10.144;2023-05-07T14:38:15;1.90;;;1.45;;
75885;SDS011;64561;44.018;10.144;2023-05-07T14:40:42;2.38;;;1.50;;
75885;SDS011;64561;44.018;10.144;2023-05-07T14:43:08;3.00;;;1.60;;
75885;SDS011;64561;44.018;10.144;2023-05-07T14:45:35;2.78;;;1.80;;
75885;SDS011;64561;44.018;10.144;2023-05-07T14:48:03;2.65;;;1.55;;
75885;SDS011;64561;44.018;10.144;2023-05-07T14:50:30;2.17;;;1.40;;
75885;SDS011;64561;44.018;10.144;2023-05-07T14:52:59;2.75;;;1.70;;
75885;SDS011;64561;44.018;10.144;2023-05-07T14:55:26;2.72;;;1.70;;
75885;SDS011;64561;44.018;10.144;2023-05-07T14:57:53;2.95;;;1.90;;
75885;SDS011;64561;44.018;10.144;2023-05-07T15:00:20;2.63;;;1.63;;
75885;SDS011;64561;44.018;10.144;2023-05-07T15:02:46;3.00;;;1.70;;
75885;SDS011;64561;44.018;10.144;2023-05-07T15:05:13;2.75;;;1.60;;
75885;SDS011;64561;44.018;10.144;2023-05-07T15:07:41;3.95;;;1.92;;
75885;SDS011;64561;44.018;10.144;2023-05-07T15:10:07;2.95;;;1.95;;
75885;SDS011;64561;44.018;10.144;2023-05-07T15:12:34;3.25;;;2.05;;
75885;SDS011;64561;44.018;10.144;2023-05-07T15:15:01;3.80;;;2.20;;
75885;SDS011;64561;44.018;10.144;2023-05-07T15:17:31;3.42;;;2.10;;
75885;SDS011;64561;44.018;10.144;2023-05-07T15:19:58;2.33;;;2.13;;
75885;SDS011;64561;44.018;10.144;2023-05-07T15:22:24;3.35;;;1.88;;
75885;SDS011;64561;44.018;10.144;2023-05-07T15:24:51;3.50;;;1.92;;
75885;SDS011;64561;44.018;10.144;2023-05-07T15:27:18;3.30;;;2.25;;
75885;SDS011;64561;44.018;10.144;2023-05-07T15:29:45;3.05;;;2.10;;
75885;SDS011;64561;44.018;10.144;2023-05-07T15:32:12;3.63;;;1.75;;
75885;SDS011;64561;44.018;10.144;2023-05-07T15:34:39;2.97;;;1.85;;
75885;SDS011;64561;44.018;10.144;2023-05-07T15:37:07;2.80;;;2.10;;
75885;SDS011;64561;44.018;10.144;2023-05-07T15:39:34;3.70;;;2.40;;
75885;SDS011;64561;44.018;10.144;2023-05-07T15:42:01;2.95;;;2.05;;
75885;SDS011;64561;44.018;10.144;2023-05-07T15:44:29;3.70;;;2.65;;
75885;SDS011;64561;44.018;10.144;2023-05-07T15:47:01;3.55;;;1.85;;
75885;SDS011;64561;44.018;10.144;2023-05-07T15:49:28;3.70;;;2.05;;
75885;SDS011;64561;44.018;10.144;2023-05-07T15:51:55;4.43;;;2.30;;
75885;SDS011;64561;44.018;10.144;2023-05-07T15:54:22;5.03;;;2.25;;
75885;SDS011;64561;44.018;10.144;2023-05-07T15:56:49;4.47;;;2.60;;
75885;SDS011;64561;44.018;10.144;2023-05-07T15:59:16;4.60;;;2.70;;
75885;SDS011;64561;44.018;10.144;2023-05-07T16:01:49;3.78;;;2.25;;
75885;SDS011;64561;44.018;10.144;2023-05-07T16:04:16;3.28;;;2.60;;
75885;SDS011;64561;44.018;10.144;2023-05-07T16:06:46;5.15;;;2.30;;
75885;SDS011;64561;44.018;10.144;2023-05-07T16:09:16;4.00;;;1.88;;
75885;SDS011;64561;44.018;10.144;2023-05-07T16:11:43;4.57;;;2.38;;
75885;SDS011;64561;44.018;10.144;2023-05-07T16:14:10;3.22;;;2.40;;
75885;SDS011;64561;44.018;10.144;2023-05-07T16:16:36;4.15;;;2.58;;
75885;SDS011;64561;44.018;10.144;2023-05-07T16:19:06;3.72;;;2.42;;
75885;SDS011;64561;44.018;10.144;2023-05-07T16:21:32;3.65;;;2.58;;
75885;SDS011;64561;44.018;10.144;2023-05-07T16:24:01;4.25;;;2.88;;
75885;SDS011;64561;44.018;10.144;2023-05-07T16:26:28;3.00;;;2.20;;
75885;SDS011;64561;44.018;10.144;2023-05-07T16:28:55;2.92;;;2.25;;
75885;SDS011;64561;44.018;10.144;2023-05-07T16:31:22;3.00;;;2.22;;
75885;SDS011;64561;44.018;10.144;2023-05-07T16:33:49;4.30;;;2.72;;
75885;SDS011;64561;44.018;10.144;2023-05-07T16:36:17;3.88;;;2.38;;
75885;SDS011;64561;44.018;10.144;2023-05-07T16:38:47;3.67;;;2.50;;
75885;SDS011;64561;44.018;10.144;2023-05-07T16:41:14;3.17;;;2.33;;
75885;SDS011;64561;44.018;10.144;2023-05-07T16:43:41;4.60;;;2.28;;
75885;SDS011;64561;44.018;10.144;2023-05-07T16:46:08;2.65;;;2.17;;
75885;SDS011;64561;44.018;10.144;2023-05-07T16:48:34;4.10;;;2.50;;
75885;SDS011;64561;44.018;10.144;2023-05-07T16:51:02;3.30;;;2.42;;
75885;SDS011;64561;44.018;10.144;2023-05-07T16:53:29;2.80;;;2.17;;
75885;SDS011;64561;44.018;10.144;2023-05-07T16:55:55;3.53;;;2.53;;
75885;SDS011;64561;44.018;10.144;2023-05-07T16:58:22;3.53;;;2.40;;
75885;SDS011;64561;44.018;10.144;2023-05-07T17:00:49;3.50;;;2.55;;
75885;SDS011;64561;44.018;10.144;2023-05-07T17:03:17;4.38;;;2.65;;
75885;SDS011;64561;44.018;10.144;2023-05-07T17:05:44;2.88;;;2.40;;
75885;SDS011;64561;44.018;10.144;2023-05-07T17:08:11;4.85;;;2.00;;
75885;SDS011;64561;44.018;10.144;2023-05-07T17:10:39;5.45;;;2.60;;
75885;SDS011;64561;44.018;10.144;2023-05-07T17:13:06;3.88;;;2.30;;
75885;SDS011;64561;44.018;10.144;2023-05-07T17:15:34;3.42;;;2.35;;
75885;SDS011;64561;44.018;10.144;2023-05-07T17:18:00;3.65;;;2.40;;
75885;SDS011;64561;44.018;10.144;2023-05-07T17:20:28;3.13;;;2.10;;
75885;SDS011;64561;44.018;10.144;2023-05-07T17:22:55;4.47;;;3.10;;
75885;SDS011;64561;44.018;10.144;2023-05-07T17:25:22;4.18;;;2.72;;
75885;SDS011;64561;44.018;10.144;2023-05-07T17:27:49;3.38;;;2.70;;
75885;SDS011;64561;44.018;10.144;2023-05-07T17:30:17;3.97;;;2.80;;
75885;SDS011;64561;44.018;10.144;2023-05-07T17:32:44;4.65;;;2.80;;
75885;SDS011;64561;44.018;10.144;2023-05-07T17:35:11;4.45;;;2.97;;
75885;SDS011;64561;44.018;10.144;2023-05-07T17:37:37;5.10;;;2.90;;
75885;SDS011;64561;44.018;10.144;2023-05-07T17:40:04;5.50;;;3.40;;
75885;SDS011;64561;44.018;10.144;2023-05-07T17:42:32;5.55;;;3.13;;
75885;SDS011;64561;44.018;10.144;2023-05-07T17:44:59;4.53;;;2.97;;
75885;SDS011;64561;44.018;10.144;2023-05-07T17:47:26;6.50;;;3.63;;
75885;SDS011;64561;44.018;10.144;2023-05-07T17:49:53;4.03;;;3.03;;
75885;SDS011;64561;44.018;10.144;2023-05-07T17:52:20;5.03;;;3.00;;
75885;SDS011;64561;44.018;10.144;2023-05-07T17:54:47;5.95;;;2.97;;
75885;SDS011;64561;44.018;10.144;2023-05-07T17:57:14;5.45;;;3.10;;
75885;SDS011;64561;44.018;10.144;2023-05-07T17:59:41;3.70;;;2.63;;
75885;SDS011;64561;44.018;10.144;2023-05-07T18:02:08;5.38;;;2.85;;
75885;SDS011;64561;44.018;10.144;2023-05-07T18:04:35;4.35;;;3.47;;
75885;SDS011;64561;44.018;10.144;2023-05-07T18:07:02;4.55;;;3.40;;
75885;SDS011;64561;44.018;10.144;2023-05-07T18:09:28;5.05;;;3.53;;
75885;SDS011;64561;44.018;10.144;2023-05-07T18:11:55;4.70;;;3.38;;
75885;SDS011;64561;44.018;10.144;2023-05-07T18:14:22;5.03;;;3.00;;
75885;SDS011;64561;44.018;10.144;2023-05-07T18:16:51;4.70;;;3.22;;
75885;SDS011;64561;44.018;10.144;2023-05-07T18:19:19;4.13;;;3.00;;
75885;SDS011;64561;44.018;10.144;2023-05-07T18:21:46;6.18;;;3.63;;
75885;SDS011;64561;44.018;10.144;2023-05-07T18:24:14;4.30;;;3.30;;
75885;SDS011;64561;44.018;10.144;2023-05-07T18:26:41;5.78;;;3.00;;
75885;SDS011;64561;44.018;10.144;2023-05-07T18:29:08;7.05;;;3.45;;
75885;SDS011;64561;44.018;10.144;2023-05-07T18:31:35;5.22;;;3.58;;
75885;SDS011;64561;44.018;10.144;2023-05-07T18:34:03;4.30;;;2.80;;
75885;SDS011;64561;44.018;10.144;2023-05-07T18:36:31;4.20;;;2.67;;
75885;SDS011;64561;44.018;10.144;2023-05-07T18:38:58;3.95;;;2.80;;
75885;SDS011;64561;44.018;10.144;2023-05-07T18:41:26;3.65;;;2.55;;
75885;SDS011;64561;44.018;10.144;2023-05-07T18:43:53;3.40;;;2.80;;
75885;SDS011;64561;44.018;10.144;2023-05-07T18:46:20;4.07;;;2.72;;
75885;SDS011;64561;44.018;10.144;2023-05-07T18:48:47;5.32;;;2.72;;
75885;SDS011;64561;44.018;10.144;2023-05-07T18:51:14;4.30;;;2.70;;
75885;SDS011;64561;44.018;10.144;2023-05-07T18:53:41;3.83;;;2.67;;
75885;SDS011;64561;44.018;10.144;2023-05-07T18:56:08;4.75;;;2.60;;
75885;SDS011;64561;44.018;10.144;2023-05-07T18:58:35;4.93;;;3.20;;
75885;SDS011;64561;44.018;10.144;2023-05-07T19:01:01;3.58;;;2.72;;
75885;SDS011;64561;44.018;10.144;2023-05-07T19:03:33;3.90;;;3.08;;
75885;SDS011;64561;44.018;10.144;2023-05-07T19:06:01;4.82;;;3.33;;
75885;SDS011;64561;44.018;10.144;2023-05-07T19:08:28;4.43;;;3.08;;
75885;SDS011;64561;44.018;10.144;2023-05-07T19:10:55;4.68;;;2.92;;
75885;SDS011;64561;44.018;10.144;2023-05-07T19:13:22;4.57;;;3.45;;
75885;SDS011;64561;44.018;10.144;2023-05-07T19:15:53;5.10;;;3.63;;
75885;SDS011;64561;44.018;10.144;2023-05-07T19:18:20;5.00;;;3.42;;
75885;SDS011;64561;44.018;10.144;2023-05-07T19:20:47;4.43;;;3.08;;
75885;SDS011;64561;44.018;10.144;2023-05-07T19:23:19;6.28;;;2.90;;
75885;SDS011;64561;44.018;10.144;2023-05-07T19:25:46;4.88;;;3.20;;
75885;SDS011;64561;44.018;10.144;2023-05-07T19:28:13;4.05;;;3.15;;
75885;SDS011;64561;44.018;10.144;2023-05-07T19:30:40;3.28;;;2.63;;
75885;SDS011;64561;44.018;10.144;2023-05-07T19:33:07;5.32;;;3.92;;
75885;SDS011;64561;44.018;10.144;2023-05-07T19:35:34;5.85;;;3.47;;
75885;SDS011;64561;44.018;10.144;2023-05-07T19:38:01;4.90;;;3.53;;
75885;SDS011;64561;44.018;10.144;2023-05-07T19:40:29;5.32;;;3.08;;
75885;SDS011;64561;44.018;10.144;2023-05-07T19:42:55;4.57;;;3.38;;
75885;SDS011;64561;44.018;10.144;2023-05-07T19:45:22;5.32;;;2.40;;
75885;SDS011;64561;44.018;10.144;2023-05-07T19:47:49;3.78;;;2.88;;
75885;SDS011;64561;44.018;10.144;2023-05-07T19:50:17;4.45;;;2.97;;
75885;SDS011;64561;44.018;10.144;2023-05-07T19:52:44;3.47;;;2.30;;
75885;SDS011;64561;44.018;10.144;2023-05-07T19:55:11;6.55;;;2.50;;
75885;SDS011;64561;44.018;10.144;2023-05-07T19:57:38;3.95;;;2.35;;
75885;SDS011;64561;44.018;10.144;2023-05-07T20:00:06;4.50;;;2.50;;
75885;SDS011;64561;44.018;10.144;2023-05-07T20:02:38;3.90;;;2.40;;
75885;SDS011;64561;44.018;10.144;2023-05-07T20:05:05;5.63;;;2.83;;
75885;SDS011;64561;44.018;10.144;2023-05-07T20:07:32;4.88;;;2.50;;
75885;SDS011;64561;44.018;10.144;2023-05-07T20:09:59;3.95;;;2.70;;
75885;SDS011;64561;44.018;10.144;2023-05-07T20:12:26;3.97;;;2.90;;
75885;SDS011;64561;44.018;10.144;2023-05-07T20:14:53;3.83;;;2.95;;
75885;SDS011;64561;44.018;10.144;2023-05-07T20:17:20;3.47;;;2.58;;
75885;SDS011;64561;44.018;10.144;2023-05-07T20:19:47;3.15;;;2.22;;
75885;SDS011;64561;44.018;10.144;2023-05-07T20:22:14;3.47;;;2.50;;
75885;SDS011;64561;44.018;10.144;2023-05-07T20:24:41;5.25;;;3.05;;
75885;SDS011;64561;44.018;10.144;2023-05-07T20:27:08;3.63;;;2.60;;
75885;SDS011;64561;44.018;10.144;2023-05-07T20:29:36;4.53;;;3.00;;
75885;SDS011;64561;44.018;10.144;2023-05-07T20:32:03;4.65;;;3.13;;
75885;SDS011;64561;44.018;10.144;2023-05-07T20:34:30;4.90;;;2.75;;
75885;SDS011;64561;44.018;10.144;2023-05-07T20:36:57;4.05;;;2.65;;
75885;SDS011;64561;44.018;10.144;2023-05-07T20:39:24;4.05;;;2.70;;
75885;SDS011;64561;44.018;10.144;2023-05-07T20:41:51;4.88;;;2.97;;
75885;SDS011;64561;44.018;10.144;2023-05-07T20:44:19;3.88;;;2.53;;
75885;SDS011;64561;44.018;10.144;2023-05-07T20:46:46;5.22;;;2.90;;
75885;SDS011;64561;44.018;10.144;2023-05-07T20:49:13;5.32;;;2.45;;
75885;SDS011;64561;44.018;10.144;2023-05-07T20:51:40;5.10;;;3.30;;
75885;SDS011;64561;44.018;10.144;2023-05-07T20:54:07;3.78;;;3.00;;
75885;SDS011;64561;44.018;10.144;2023-05-07T20:56:34;4.75;;;2.60;;
75885;SDS011;64561;44.018;10.144;2023-05-07T20:59:01;3.70;;;2.42;;
75885;SDS011;64561;44.018;10.144;2023-05-07T21:01:28;4.72;;;2.50;;
75885;SDS011;64561;44.018;10.144;2023-05-07T21:03:55;4.75;;;2.70;;
75885;SDS011;64561;44.018;10.144;2023-05-07T21:06:22;4.75;;;2.90;;
75885;SDS011;64561;44.018;10.144;2023-05-07T21:08:49;4.05;;;2.60;;
75885;SDS011;64561;44.018;10.144;2023-05-07T21:11:16;3.20;;;2.33;;
75885;SDS011;64561;44.018;10.144;2023-05-07T21:13:43;4.72;;;2.50;;
75885;SDS011;64561;44.018;10.144;2023-05-07T21:16:10;4.15;;;2.47;;
75885;SDS011;64561;44.018;10.144;2023-05-07T21:18:37;3.88;;;2.78;;
75885;SDS011;64561;44.018;10.144;2023-05-07T21:21:07;3.88;;;2.33;;
75885;SDS011;64561;44.018;10.144;2023-05-07T21:23:35;3.47;;;2.20;;
75885;SDS011;64561;44.018;10.144;2023-05-07T21:26:02;4.05;;;2.50;;
75885;SDS011;64561;44.018;10.144;2023-05-07T21:28:31;6.05;;;3.08;;
75885;SDS011;64561;44.018;10.144;2023-05-07T21:30:58;3.88;;;2.40;;
75885;SDS011;64561;44.018;10.144;2023-05-07T21:33:25;2.83;;;2.05;;
75885;SDS011;64561;44.018;10.144;2023-05-07T21:35:52;3.92;;;2.30;;
75885;SDS011;64561;44.018;10.144;2023-05-07T21:38:19;3.63;;;2.30;;
75885;SDS011;64561;44.018;10.144;2023-05-07T21:40:46;4.68;;;2.38;;
75885;SDS011;64561;44.018;10.144;2023-05-07T21:43:13;3.83;;;2.60;;
75885;SDS011;64561;44.018;10.144;2023-05-07T21:45:40;2.70;;;2.00;;
75885;SDS011;64561;44.018;10.144;2023-05-07T21:48:07;4.85;;;2.47;;
75885;SDS011;64561;44.018;10.144;2023-05-07T21:50:34;5.03;;;2.30;;
75885;SDS011;64561;44.018;10.144;2023-05-07T21:53:01;2.80;;;2.03;;
75885;SDS011;64561;44.018;10.144;2023-05-07T21:55:28;3.53;;;2.33;;
75885;SDS011;64561;44.018;10.144;2023-05-07T21:57:55;3.70;;;2.30;;
75885;SDS011;64561;44.018;10.144;2023-05-07T22:00:31;3.08;;;1.85;;
75885;SDS011;64561;44.018;10.144;2023-05-07T22:02:58;2.95;;;2.00;;
75885;SDS011;64561;44.018;10.144;2023-05-07T22:05:26;2.90;;;1.98;;
75885;SDS011;64561;44.018;10.144;2023-05-07T22:07:53;4.20;;;1.88;;
75885;SDS011;64561;44.018;10.144;2023-05-07T22:10:19;3.22;;;2.08;;
75885;SDS011;64561;44.018;10.144;2023-05-07T22:12:49;3.42;;;2.10;;
75885;SDS011;64561;44.018;10.144;2023-05-07T22:15:16;3.40;;;2.17;;
75885;SDS011;64561;44.018;10.144;2023-05-07T22:17:43;4.45;;;2.35;;
75885;SDS011;64561;44.018;10.144;2023-05-07T22:20:10;3.63;;;2.40;;
75885;SDS011;64561;44.018;10.144;2023-05-07T22:22:44;4.35;;;2.45;;
75885;SDS011;64561;44.018;10.144;2023-05-07T22:25:14;4.70;;;2.83;;
75885;SDS011;64561;44.018;10.144;2023-05-07T22:27:41;2.80;;;2.22;;
75885;SDS011;64561;44.018;10.144;2023-05-07T22:30:08;3.00;;;2.28;;
75885;SDS011;64561;44.018;10.144;2023-05-07T22:32:36;3.95;;;2.35;;
75885;SDS011;64561;44.018;10.144;2023-05-07T22:35:03;3.35;;;2.35;;
75885;SDS011;64561;44.018;10.144;2023-05-07T22:37:30;4.50;;;2.35;;
75885;SDS011;64561;44.018;10.144;2023-05-07T22:39:57;5.18;;;2.95;;
75885;SDS011;64561;44.018;10.144;2023-05-07T22:42:24;3.85;;;2.90;;
75885;SDS011;64561;44.018;10.144;2023-05-07T22:44:51;4.10;;;2.80;;
75885;SDS011;64561;44.018;10.144;2023-05-07T22:47:18;5.28;;;2.67;;
75885;SDS011;64561;44.018;10.144;2023-05-07T22:49:45;4.47;;;2.40;;
75885;SDS011;64561;44.018;10.144;2023-05-07T22:52:12;3.53;;;2.22;;
75885;SDS011;64561;44.018;10.144;2023-05-07T22:54:39;3.88;;;2.20;;
75885;SDS011;64561;44.018;10.144;2023-05-07T22:57:06;3.47;;;2.60;;
75885;SDS011;64561;44.018;10.144;2023-05-07T22:59:33;4.20;;;2.65;;
75885;SDS011;64561;44.018;10.144;2023-05-07T23:02:00;3.70;;;2.22;;
75885;SDS011;64561;44.018;10.144;2023-05-07T23:04:27;3.80;;;2.65;;
75885;SDS011;64561;44.018;10.144;2023-05-07T23:06:53;3.45;;;2.40;;
75885;SDS011;64561;44.018;10.144;2023-05-07T23:09:20;3.65;;;2.30;;
75885;SDS011;64561;44.018;10.144;2023-05-07T23:11:47;4.25;;;2.40;;
75885;SDS011;64561;44.018;10.144;2023-05-07T23:14:14;3.63;;;2.42;;
75885;SDS011;64561;44.018;10.144;2023-05-07T23:16:41;2.42;;;1.80;;
75885;SDS011;64561;44.018;10.144;2023-05-07T23:19:08;2.80;;;2.03;;
75885;SDS011;64561;44.018;10.144;2023-05-07T23:21:36;2.92;;;2.15;;
75885;SDS011;64561;44.018;10.144;2023-05-07T23:24:03;3.28;;;2.00;;
75885;SDS011;64561;44.018;10.144;2023-05-07T23:26:30;2.70;;;2.00;;
75885;SDS011;64561;44.018;10.144;2023-05-07T23:28:59;3.55;;;2.10;;
75885;SDS011;64561;44.018;10.144;2023-05-07T23:31:26;4.35;;;2.40;;
75885;SDS011;64561;44.018;10.144;2023-05-07T23:33:53;4.55;;;2.50;;
75885;SDS011;64561;44.018;10.144;2023-05-07T23:36:20;5.22;;;2.40;;
75885;SDS011;64561;44.018;10.144;2023-05-07T23:38:47;3.30;;;2.33;;
75885;SDS011;64561;44.018;10.144;2023-05-07T23:41:14;3.20;;;2.10;;
75885;SDS011;64561;44.018;10.144;2023-05-07T23:43:41;3.70;;;2.22;;
75885;SDS011;64561;44.018;10.144;2023-05-07T23:46:07;3.55;;;2.22;;
75885;SDS011;64561;44.018;10.144;2023-05-07T23:48:34;3.88;;;2.20;;
75885;SDS011;64561;44.018;10.144;2023-05-07T23:51:01;3.55;;;2.30;;
75885;SDS011;64561;44.018;10.144;2023-05-07T23:53:28;4.57;;;2.00;;
75885;SDS011;64561;44.018;10.144;2023-05-07T23:55:55;3.63;;;1.98;;
75885;SDS011;64561;44.018;10.144;2023-05-07T23:58:22;4.45;;;2.30;;
